METAR Analyzer

一覧表示

Hello, Guest. (Login)

RJFF/FUK  -  福岡

観測日時
2022-09-30 06:30 (UTC) (33分前)
気温
26
露点
19
湿数
7
相対湿度
65.4%
QNH
1014.2hPa
推定現地気圧
1013.1hPa
推定海面気圧
1014.1hPa
体感温度
19.7
(無風時)
24.9
HI
26.4
気温前日比
±0
体感温度前日比
+0.3
HI前日比
±0
水平視程
>10000m
鉛直視程
データなし
雲底高度
No dense clouds
V/I
VMC (VFR)
RVR
No RVR data
卓越風
9kt from 340°
ガスト
No gust
降水
報告なし
その他の天気
報告なし
少しの(1/8) 積雲 @ 2500ft AGL

RJFF 300630Z 34009KT 9999 FEW025 26/19 Q1014 NOSIG RMK 1CU025 A2995

RJFR/KKJ  -  北九州

観測日時
2022-09-30 06:00 (UTC) (63分前)
気温
26
露点
16
湿数
10
相対湿度
54.1%
QNH
1014hPa
推定現地気圧
1013.3hPa
推定海面気圧
1014.0hPa
体感温度
21
(無風時)
24.2
HI
26.1
気温前日比
+1
体感温度前日比
+0.6
HI前日比
+0.6
水平視程
>10000m
鉛直視程
データなし
雲底高度
No dense clouds
V/I
VMC (VFR)
RVR
No RVR data
卓越風
3kt from 250°
ガスト
No gust
降水
報告なし
その他の天気
報告なし
少しの雲 @ 2500ft AGL

RJFR 300600Z 25003KT 9999 FEW025 26/16 Q1014

RJFA  -  芦屋基地

観測日時
2022-09-30 06:00 (UTC) (63分前)
気温
25
露点
20
湿数
5
相対湿度
73.8%
QNH
1014.6hPa
推定現地気圧
1011.0hPa
推定海面気圧
1014.5hPa
体感温度
18.5
(無風時)
24.6
HI
25.5
気温前日比
+1
体感温度前日比
+1.3
HI前日比
+1.2
水平視程
>10000m
鉛直視程
データなし
雲底高度
No dense clouds
V/I
VMC (VFR)
RVR
No RVR data
卓越風
11kt from 360°
ガスト
No gust
降水
報告なし
その他の天気
報告なし
少しの(1/8) 積雲 @ 1500ft AGL

RJFA 300600Z 36011KT 9999 FEW015 25/20 Q1014 RMK 1CU015 A2996 RWY30 MAG 36011KT

RJFZ  -  築城基地

観測日時
2022-09-30 06:00 (UTC) (63分前)
気温
25
露点
14
湿数
11
相対湿度
50.4%
QNH
1013.9hPa
推定現地気圧
1011.9hPa
推定海面気圧
1013.9hPa
体感温度
19.8
(無風時)
23.2
HI
24.9
気温前日比
±0
体感温度前日比
-0.6
HI前日比
-0.6
水平視程
>10000m
鉛直視程
データなし
雲底高度
No dense clouds
V/I
VMC (VFR)
RVR
No RVR data
卓越風
3kt from 350° (320° ~ 20°)
ガスト
No gust
降水
報告なし
その他の天気
報告なし
少しの(1/8) 積雲 @ 2000ft AGL

RJFZ 300600Z 35003KT 320V020 9999 FEW020 25/14 Q1013 RMK 1CU020 A2994

RJFS/HSG  -  佐賀

観測日時
2022-09-30 06:00 (UTC) (63分前)
気温
28
露点
20
湿数
8
相対湿度
61.8%
QNH
1013hPa
推定現地気圧
1012.8hPa
推定海面気圧
1013.0hPa
体感温度
22.5
(無風時)
26.2
HI
29.7
気温前日比
+3
体感温度前日比
+1.9
HI前日比
+4.1
水平視程
>10000m
鉛直視程
データなし
雲底高度
No dense clouds
V/I
VMC (VFR)
RVR
No RVR data
卓越風
6kt from 230°
ガスト
No gust
降水
報告なし
その他の天気
報告なし
少しの雲 @ 3500ft AGL

RJFS 300600Z 23006KT 9999 FEW035 28/20 Q1013

RJFU/NGS  -  長崎

観測日時
2022-09-30 06:00 (UTC) (63分前)
気温
28
露点
17
湿数
11
相対湿度
51.2%
QNH
1013hPa
推定現地気圧
1012.8hPa
推定海面気圧
1013.0hPa
体感温度
23.3
(無風時)
25.4
HI
28.6
気温前日比
+2
体感温度前日比
+3.9
HI前日比
+2.1
水平視程
>10000m
鉛直視程
データなし
雲底高度
No dense clouds
V/I
VMC (VFR)
RVR
No RVR data
卓越風
2kt from VRB
ガスト
No gust
降水
報告なし
その他の天気
報告なし
少しの雲 @ 3500ft AGL

RJFU 300600Z VRB02KT 9999 FEW035 28/17 Q1013

RJFE/FUJ  -  福江

観測日時
2022-09-30 06:00 (UTC) (63分前)
気温
26
露点
18
湿数
8
相対湿度
61.4%
QNH
1014.6hPa
推定現地気圧
1005.4hPa
推定海面気圧
1014.3hPa
体感温度
19.7
(無風時)
24.6
HI
26.3
気温前日比
+1
体感温度前日比
+1.6
HI前日比
+1
水平視程
>10000m
鉛直視程
データなし
雲底高度
No dense clouds
V/I
VMC (VFR)
RVR
No RVR data
卓越風
8kt from 10° (330° ~ 40°)
ガスト
No gust
降水
報告なし
その他の天気
報告なし
少しの(1/8) 積雲 @ 3000ft AGL

RJFE 300600Z 01008KT 330V040 9999 FEW030 26/18 Q1014 RMK 1CU030 A2996

RJDT/TSJ  -  対馬

観測日時
2022-09-30 06:00 (UTC) (63分前)
気温
24
露点
20
湿数
4
相対湿度
78.4%
QNH
1014.6hPa
推定現地気圧
1007.0hPa
推定海面気圧
1014.3hPa
体感温度
19.5
(無風時)
24.1
HI
24.5
気温前日比
±0
体感温度前日比
+0.7
HI前日比
+0.1
水平視程
>10000m
鉛直視程
データなし
雲底高度
No dense clouds
V/I
VMC (VFR)
RVR
No RVR data
卓越風
4kt from 150° (110° ~ 200°)
ガスト
No gust
降水
報告なし
その他の天気
報告なし
少しの(1/8) 積雲 @ 2500ft AGL

RJDT 300600Z 15004KT 110V200 9999 FEW025 24/20 Q1014 RMK 1CU025 A2996

RJDB/IKI  -  壱岐

観測日時
2022-09-30 06:00 (UTC) (63分前)
気温
25
露点
20
湿数
5
相対湿度
73.8%
QNH
1014.2hPa
推定現地気圧
1012.8hPa
推定海面気圧
1014.2hPa
体感温度
18.9
(無風時)
24.6
HI
25.5
気温前日比
±0
体感温度前日比
±0
HI前日比
+0.1
水平視程
>10000m
鉛直視程
データなし
雲底高度
No dense clouds
V/I
VMC (VFR)
RVR
No RVR data
卓越風
9kt from 20° (340° ~ 50°)
ガスト
No gust
降水
報告なし
その他の天気
報告なし
目立った雲なし

RJDB 300600Z AUTO 02009KT 340V050 9999 NCD 25/20 Q1014 RMK A2995

RJFO/OIT  -  大分

観測日時
2022-09-30 06:00 (UTC) (63分前)
気温
25
露点
18
湿数
7
相対湿度
65.1%
QNH
1013hPa
推定現地気圧
1012.4hPa
推定海面気圧
1013.0hPa
体感温度
19.6
(無風時)
24.1
HI
25.3
気温前日比
+1
体感温度前日比
+2.1
HI前日比
+0.7
水平視程
>10000m
鉛直視程
データなし
雲底高度
No dense clouds
V/I
VMC (VFR)
RVR
No RVR data
卓越風
5kt from 60° (30° ~ 90°)
ガスト
No gust
降水
報告なし
その他の天気
報告なし
少しの雲 @ 2500ft AGL

RJFO 300600Z 06005KT 030V090 9999 FEW025 25/18 Q1013

RJFT/KMJ  -  熊本

観測日時
2022-09-30 06:00 (UTC) (63分前)
気温
27
露点
18
湿数
9
相対湿度
57.9%
QNH
1014hPa
推定現地気圧
991.0hPa
推定海面気圧
1012.9hPa
体感温度
20.9
(無風時)
25.1
HI
27.9
気温前日比
+2
体感温度前日比
+1.1
HI前日比
+2.5
水平視程
>10000m
鉛直視程
データなし
雲底高度
No dense clouds
V/I
VMC (VFR)
RVR
No RVR data
卓越風
7kt from 220° (180° ~ 250°)
ガスト
No gust
降水
報告なし
その他の天気
報告なし
少しの雲 @ 3500ft AGL

RJFT 300600Z 22007KT 180V250 9999 FEW035 27/18 Q1014

RJDA/AXJ  -  天草

観測日時
2022-09-30 06:00 (UTC) (63分前)
気温
27
露点
21
湿数
6
相対湿度
69.7%
QNH
1014.2hPa
推定現地気圧
1001.8hPa
推定海面気圧
1013.7hPa
体感温度
21.8
(無風時)
25.9
HI
28.8
気温前日比
+2
体感温度前日比
+3.1
HI前日比
+3.3
水平視程
>10000m
鉛直視程
データなし
雲底高度
No dense clouds
V/I
VMC (VFR)
RVR
No RVR data
卓越風
6kt from 340° (290° ~ 30°)
ガスト
No gust
降水
報告なし
その他の天気
報告なし
少しの(1/8) 積雲 @ 3000ft AGL

RJDA 300600Z 34006KT 290V030 9999 FEW030 27/21 Q1014 RMK 1CU030 A2995

RJFM/KMI  -  宮崎

観測日時
2022-09-30 06:00 (UTC) (63分前)
気温
27
露点
21
湿数
6
相対湿度
69.7%
QNH
1013.5hPa
推定現地気圧
1012.8hPa
推定海面気圧
1013.5hPa
体感温度
21.6
(無風時)
25.9
HI
28.8
気温前日比
±0
体感温度前日比
+0.2
HI前日比
±0
水平視程
>10000m
鉛直視程
データなし
雲底高度
No dense clouds
V/I
VMC (VFR)
RVR
No RVR data
卓越風
7kt from 90°
ガスト
No gust
降水
報告なし
その他の天気
報告なし
少しの(1/8) 積雲 @ 3000ft AGL

RJFM 300600Z 09007KT 9999 FEW030 27/21 Q1013 RMK 1CU030 A2993

RJFN  -  新田原基地

観測日時
2022-09-30 06:00 (UTC) (63分前)
気温
27
露点
21
湿数
6
相対湿度
69.7%
QNH
1014.6hPa
推定現地気圧
1005.1hPa
推定海面気圧
1014.2hPa
体感温度
21.6
(無風時)
25.9
HI
28.8
気温前日比
±0
体感温度前日比
-0.2
HI前日比
±0
水平視程
>10000m
鉛直視程
データなし
雲底高度
No dense clouds
V/I
VMC (VFR)
RVR
No RVR data
卓越風
7kt from 80° (50° ~ 120°)
ガスト
No gust
降水
報告なし
その他の天気
報告なし
少しの(1/8) 積雲 @ 3000ft AGL

RJFN 300600Z 08007KT 050V120 9999 FEW030 27/21 Q1014 RMK 1CU030 A2996

RJFK/KOJ  -  鹿児島

観測日時
2022-09-30 06:00 (UTC) (63分前)
気温
28
露点
17
湿数
11
相対湿度
51.2%
QNH
1014.2hPa
推定現地気圧
981.9hPa
推定海面気圧
1012.5hPa
体感温度
22.1
(無風時)
25.4
HI
28.6
気温前日比
±0
体感温度前日比
-0.3
HI前日比
±0
水平視程
>10000m
鉛直視程
データなし
雲底高度
Unknown
V/I
判定不可
RVR
No RVR data
卓越風
5kt from 180° (140° ~ 240°)
ガスト
No gust
降水
報告なし
その他の天気
報告なし
少しの(2/8) 積雲 @ 3000ft AGL / 隙間のある雲 @ 不明な高さ

RJFK 300600Z 18005KT 140V240 9999 FEW030 BKN/// 28/17 Q1014 RMK 2CU030 A2995 VOLCANIC ASH CLOUD S

RJFY  -  鹿屋航空基地

観測日時
2022-09-30 06:00 (UTC) (63分前)
気温
28
露点
21
湿数
7
相対湿度
65.8%
QNH
1012.9hPa
推定現地気圧
1005.1hPa
推定海面気圧
1012.5hPa
体感温度
22.1
(無風時)
26.4
HI
30.1
気温前日比
±0
体感温度前日比
+0.3
HI前日比
+0.9
水平視程
>10000m
鉛直視程
データなし
雲底高度
No dense clouds
V/I
VMC (VFR)
RVR
No RVR data
卓越風
10kt from 240°
ガスト
No gust
降水
報告なし
その他の天気
報告なし
少しの(2/8) 積雲 @ 3500ft AGL / 散在する雲 @ 不明な高さ

RJFY 300600Z 24010KT 9999 FEW035 SCT/// 28/21 Q1013 RMK 2CU035 A2991

RJFG/TNE  -  種子島

観測日時
2022-09-30 06:00 (UTC) (63分前)
気温
24
露点
22
湿数
2
相対湿度
88.6%
QNH
1014.9hPa
推定現地気圧
987.1hPa
推定海面気圧
1013.9hPa
体感温度
20.5
(無風時)
24.6
HI
24.8
気温前日比
-2
体感温度前日比
-1.3
HI前日比
-1.9
水平視程
>10000m
鉛直視程
データなし
雲底高度
6000ft AGL
V/I
VMC (VFR)
RVR
No RVR data
卓越風
3kt from 60° (340° ~ 140°)
ガスト
No gust
降水
弱いしゅう雨性の雨
その他の天気
報告なし
少しの(1/8) 積雲 @ 1000ft AGL / 散在する(4/8) 積雲 @ 1500ft AGL / 隙間のある(5/8) 層積雲 @ 6000ft AGL

RJFG 300600Z 06003KT 340V140 9999 -SHRA FEW010 SCT015 BKN060 24/22 Q1014 RMK 1CU010 4CU015 5SC060 A2997

RJFC/KUM  -  屋久島

観測日時
2022-09-30 06:00 (UTC) (63分前)
気温
27
露点
21
湿数
6
相対湿度
69.7%
QNH
1013.9hPa
推定現地気圧
1009.5hPa
推定海面気圧
1013.8hPa
体感温度
22.1
(無風時)
25.9
HI
28.8
気温前日比
±0
体感温度前日比
+0.7
HI前日比
+0.3
水平視程
>10000m
鉛直視程
データなし
雲底高度
No dense clouds
V/I
VMC (VFR)
RVR
No RVR data
卓越風
5kt from 350°
ガスト
No gust
降水
報告なし
その他の天気
報告なし
少しの雲 @ 2500ft AGL / 散在する雲 @ 4000ft AGL

RJFC 300600Z 35005KT 9999 FEW025 SCT040 27/21 Q1014 RMK A2994

RJKA/ASJ  -  奄美

観測日時
2022-09-30 06:00 (UTC) (63分前)
気温
30
露点
21
湿数
9
相対湿度
58.6%
QNH
1013.5hPa
推定現地気圧
1013.0hPa
推定海面気圧
1013.5hPa
体感温度
24.3
(無風時)
27.4
HI
32.6
気温前日比
+1
体感温度前日比
+1.1
HI前日比
+0.6
水平視程
>10000m
鉛直視程
データなし
雲底高度
No dense clouds
V/I
VMC (VFR)
RVR
No RVR data
卓越風
8kt from 310° (260° ~ 20°)
ガスト
No gust
降水
報告なし
その他の天気
報告なし
少しの(1/8) 積雲 @ 3500ft AGL

RJKA 300600Z 31008KT 260V020 9999 FEW035 30/21 Q1013 RMK 1CU035 A2993

RJKI/KKX  -  喜界

観測日時
2022-09-30 06:00 (UTC) (63分前)
気温
29
露点
22
湿数
7
相対湿度
66%
QNH
1013.5hPa
推定現地気圧
1012.9hPa
推定海面気圧
1013.5hPa
体感温度
24
(無風時)
27.2
HI
32
気温前日比
±0
体感温度前日比
+0.8
HI前日比
±0
水平視程
>10000m
鉛直視程
データなし
雲底高度
2700ft AGL
V/I
VMC (VFR)
RVR
No RVR data
卓越風
6kt from 350°
ガスト
No gust
降水
報告なし
その他の天気
報告なし
隙間のある雲 @ 2700ft AGL

RJKI 300600Z AUTO 35006KT 9999 BKN027 29/22 Q1013 RMK A2993

RJKN/TKN  -  徳之島

観測日時
2022-09-30 06:00 (UTC) (63分前)
気温
29
露点
22
湿数
7
相対湿度
66%
QNH
1013.9hPa
推定現地気圧
1013.7hPa
推定海面気圧
1013.9hPa
体感温度
23.5
(無風時)
27.2
HI
32
気温前日比
-1
体感温度前日比
-0.9
HI前日比
-2.1
水平視程
>10000m
鉛直視程
データなし
雲底高度
No dense clouds
V/I
VMC (VFR)
RVR
No RVR data
卓越風
9kt from 350°
ガスト
No gust
降水
報告なし
その他の天気
報告なし
目立った雲なし

RJKN 300600Z AUTO 35009KT 9999 NCD 29/22 Q1013 RMK A2994

RJKB/OKE  -  沖永良部

観測日時
2022-09-30 06:00 (UTC) (63分前)
気温
29
露点
23
湿数
6
相対湿度
70.1%
QNH
1014.2hPa
推定現地気圧
1011.0hPa
推定海面気圧
1014.1hPa
体感温度
24.2
(無風時)
27.5
HI
32.8
気温前日比
-1
体感温度前日比
±0
HI前日比
-0.5
水平視程
>10000m
鉛直視程
データなし
雲底高度
No dense clouds
V/I
VMC (VFR)
RVR
No RVR data
卓越風
6kt from 340°
ガスト
No gust
降水
報告なし
その他の天気
報告なし
少しの雲 @ 2000ft AGL

RJKB 300600Z 34006KT 9999 FEW020 29/23 Q1014 RMK A2995

RORY/RNJ  -  与論

観測日時
2022-09-30 06:00 (UTC) (63分前)
気温
29
露点
24
湿数
5
相対湿度
74.5%
QNH
1014.2hPa
推定現地気圧
1012.5hPa
推定海面気圧
1014.1hPa
体感温度
24.5
(無風時)
27.9
HI
33.6
気温前日比
±0
体感温度前日比
+0.6
HI前日比
±0
水平視程
>10000m
鉛直視程
データなし
雲底高度
No dense clouds
V/I
VMC (VFR)
RVR
No RVR data
卓越風
6kt from 360° (330° ~ 40°)
ガスト
No gust
降水
報告なし
その他の天気
報告なし
目立った雲なし

RORY 300600Z AUTO 36006KT 330V040 9999 NCD 29/24 Q1014 RMK A2995

39.8msec